createdAt,value
2018-07-02T00:00:39.500Z,0.60
2018-07-02T00:03:08.194Z,0.50
2018-07-02T00:05:47.865Z,0.30
2018-07-02T00:08:16.520Z,0.50
2018-07-02T00:10:45.191Z,0.65
2018-07-02T00:13:13.873Z,0.40
2018-07-02T00:15:42.614Z,0.37
2018-07-02T00:18:11.059Z,0.30
2018-07-02T00:20:39.660Z,0.53
2018-07-02T00:23:08.217Z,0.60
2018-07-02T00:25:36.885Z,0.60
2018-07-02T00:28:05.432Z,0.30
2018-07-02T00:30:34.143Z,0.50
2018-07-02T00:33:02.835Z,0.50
2018-07-02T00:35:32.046Z,0.30
2018-07-02T00:38:00.694Z,0.47
2018-07-02T00:40:29.374Z,0.40
2018-07-02T00:42:57.983Z,0.50
2018-07-02T00:45:26.527Z,0.40
2018-07-02T00:47:55.062Z,0.50
2018-07-02T00:50:23.635Z,0.60
2018-07-02T00:52:52.331Z,0.50
2018-07-02T00:55:20.864Z,0.45
2018-07-02T00:57:49.558Z,0.40
2018-07-02T01:00:18.303Z,0.65
2018-07-02T01:02:46.974Z,0.40
2018-07-02T01:05:16.465Z,0.50
2018-07-02T01:07:45.543Z,0.60
2018-07-02T01:10:14.384Z,0.50
2018-07-02T01:12:42.976Z,0.50
2018-07-02T01:15:12.335Z,0.50
2018-07-02T01:17:40.975Z,0.50
2018-07-02T01:20:09.562Z,0.53
2018-07-02T01:22:38.066Z,0.30
2018-07-02T01:25:06.666Z,0.40
2018-07-02T01:27:35.286Z,0.57
2018-07-02T01:30:05.214Z,0.50
2018-07-02T01:32:33.773Z,0.40
2018-07-02T01:35:02.674Z,0.33
2018-07-02T01:37:31.418Z,0.40
2018-07-02T01:40:00.323Z,0.57
2018-07-02T01:42:29.440Z,0.47
2018-07-02T01:44:58.289Z,0.50
2018-07-02T01:47:26.884Z,0.47
2018-07-02T01:49:55.392Z,0.30
2018-07-02T01:52:23.855Z,0.30
2018-07-02T01:54:52.577Z,0.50
2018-07-02T01:57:22.200Z,0.42
2018-07-02T01:59:50.806Z,0.50
2018-07-02T02:02:19.393Z,0.30
2018-07-02T02:04:47.930Z,0.50
2018-07-02T02:07:16.992Z,0.37
2018-07-02T02:09:46.485Z,0.40
2018-07-02T02:12:16.164Z,0.97
2018-07-02T02:14:45.725Z,0.60
2018-07-02T02:17:14.388Z,0.60
2018-07-02T02:19:43.052Z,0.50
2018-07-02T02:22:11.678Z,0.37
2018-07-02T02:24:40.242Z,0.50
2018-07-02T02:27:08.826Z,0.60
2018-07-02T02:29:37.351Z,0.30
2018-07-02T02:32:05.893Z,0.43
2018-07-02T02:34:34.420Z,0.40
2018-07-02T02:37:02.932Z,0.50
2018-07-02T02:39:31.476Z,0.60
2018-07-02T02:42:00.074Z,0.50
2018-07-02T02:44:28.820Z,0.57
2018-07-02T02:46:57.634Z,0.50
2018-07-02T02:49:28.209Z,0.40
2018-07-02T02:51:56.773Z,0.50
2018-07-02T02:54:25.410Z,0.70
2018-07-02T02:56:54.027Z,0.50
2018-07-02T02:59:23.144Z,0.50
2018-07-02T03:01:51.721Z,0.40
2018-07-02T03:04:20.352Z,0.60
2018-07-02T03:06:48.913Z,0.37
2018-07-02T03:09:17.645Z,0.50
2018-07-02T03:11:46.809Z,0.65
2018-07-02T03:14:15.435Z,0.57
2018-07-02T03:16:44.205Z,0.40
2018-07-02T03:19:14.902Z,0.73
2018-07-02T03:21:43.515Z,0.67
2018-07-02T03:24:13.042Z,0.70
2018-07-02T03:26:41.658Z,0.60
2018-07-02T03:29:10.707Z,0.65
2018-07-02T03:31:40.046Z,0.50
2018-07-02T03:34:08.724Z,0.40
2018-07-02T03:36:37.256Z,0.77
2018-07-02T03:39:07.944Z,0.53
2018-07-02T03:41:36.535Z,0.60
2018-07-02T03:44:05.546Z,0.70
2018-07-02T03:46:34.605Z,0.80
2018-07-02T03:49:04.562Z,0.70
2018-07-02T03:51:33.239Z,0.80
2018-07-02T03:54:02.499Z,0.70
2018-07-02T03:56:31.098Z,0.80
2018-07-02T03:58:59.996Z,0.70
2018-07-02T04:01:28.659Z,1.00
2018-07-02T04:03:57.290Z,1.00
2018-07-02T04:06:25.863Z,0.80
2018-07-02T04:08:54.499Z,0.80
2018-07-02T04:11:23.078Z,1.23
2018-07-02T04:13:52.570Z,0.82
2018-07-02T04:16:21.098Z,1.10
2018-07-02T04:18:49.687Z,0.93
2018-07-02T04:21:18.143Z,0.77
2018-07-02T04:23:46.683Z,1.03
2018-07-02T04:26:15.213Z,0.80
2018-07-02T04:28:43.779Z,0.63
2018-07-02T04:31:12.433Z,0.80
2018-07-02T04:33:40.972Z,0.90
2018-07-02T04:36:09.760Z,0.80
2018-07-02T04:38:38.431Z,0.90
2018-07-02T04:41:07.862Z,0.90
2018-07-02T04:43:36.511Z,0.80
2018-07-02T04:46:05.885Z,0.60
2018-07-02T04:48:34.515Z,0.80
2018-07-02T04:51:03.228Z,0.80
2018-07-02T04:53:31.753Z,1.00
2018-07-02T04:56:00.878Z,0.93
2018-07-02T04:58:29.496Z,0.70
2018-07-02T05:00:58.179Z,0.93
2018-07-02T05:03:26.876Z,0.90
2018-07-02T05:05:56.693Z,0.93
2018-07-02T05:08:25.562Z,0.60
2018-07-02T05:10:54.778Z,0.88
2018-07-02T05:13:24.134Z,1.00
2018-07-02T05:15:52.727Z,0.80
2018-07-02T05:18:21.415Z,0.70
2018-07-02T05:20:49.982Z,0.80
2018-07-02T05:23:18.673Z,0.80
2018-07-02T05:25:48.117Z,0.63
2018-07-02T05:28:16.847Z,1.13
2018-07-02T05:30:46.341Z,0.70
2018-07-02T05:33:15.258Z,0.88
2018-07-02T05:35:43.722Z,0.93
2018-07-02T05:38:12.244Z,0.60
2018-07-02T05:40:40.748Z,0.70
2018-07-02T05:43:09.359Z,0.88
2018-07-02T05:45:37.958Z,0.60
2018-07-02T05:48:06.587Z,0.80
2018-07-02T05:50:35.156Z,0.77
2018-07-02T05:53:03.868Z,1.00
2018-07-02T05:55:32.581Z,0.90
2018-07-02T05:58:01.273Z,0.80
2018-07-02T06:00:29.831Z,0.90
2018-07-02T06:02:58.666Z,1.23
2018-07-02T06:05:27.303Z,0.87
2018-07-02T06:07:55.915Z,1.00
2018-07-02T06:10:24.928Z,1.17
2018-07-02T06:12:53.504Z,1.07
2018-07-02T06:15:31.392Z,1.20
2018-07-02T06:18:00.991Z,0.93
2018-07-02T06:20:30.349Z,1.00
2018-07-02T06:22:59.023Z,1.00
2018-07-02T06:25:27.968Z,1.10
2018-07-02T06:27:58.905Z,1.20
2018-07-02T06:30:28.657Z,1.10
2018-07-02T06:32:57.138Z,1.00
2018-07-02T06:35:25.910Z,0.90
2018-07-02T06:37:55.259Z,0.88
2018-07-02T06:40:23.865Z,0.77
2018-07-02T06:42:52.355Z,0.83
2018-07-02T06:45:21.165Z,1.00
2018-07-02T06:47:49.781Z,0.80
2018-07-02T06:50:18.335Z,1.50
2018-07-02T06:52:46.866Z,0.83
2018-07-02T06:55:16.327Z,1.60
2018-07-02T06:57:45.609Z,1.10
2018-07-02T07:00:14.648Z,0.90
2018-07-02T07:02:43.215Z,0.70
2018-07-02T07:05:11.869Z,1.30
2018-07-02T07:07:40.423Z,0.93
2018-07-02T07:10:08.989Z,1.10
2018-07-02T07:12:37.613Z,1.30
2018-07-02T07:15:08.055Z,1.17
2018-07-02T07:17:36.660Z,1.27
2018-07-02T07:20:05.860Z,1.30
2018-07-02T07:22:34.421Z,1.30
2018-07-02T07:25:03.513Z,1.42
2018-07-02T07:27:32.101Z,1.50
2018-07-02T07:30:00.678Z,1.27
2018-07-02T07:32:29.240Z,1.30
2018-07-02T07:34:57.780Z,1.00
2018-07-02T07:37:26.696Z,1.25
2018-07-02T07:39:55.361Z,0.93
2018-07-02T07:42:24.164Z,0.90
2018-07-02T07:44:52.836Z,0.95
2018-07-02T07:47:21.429Z,1.10
2018-07-02T07:49:50.041Z,1.00
2018-07-02T07:52:18.721Z,0.90
2018-07-02T07:54:47.408Z,0.68
2018-07-02T07:57:16.242Z,0.80
2018-07-02T07:59:44.832Z,0.65
2018-07-02T08:02:13.361Z,0.80
2018-07-02T08:04:42.510Z,0.68
2018-07-02T08:07:11.767Z,0.70
2018-07-02T08:09:40.522Z,0.80
2018-07-02T08:12:09.161Z,0.70
2018-07-02T08:14:37.794Z,0.50
2018-07-02T08:17:06.347Z,0.80
2018-07-02T08:19:35.184Z,0.60
2018-07-02T08:22:03.759Z,0.60
2018-07-02T08:24:32.326Z,0.50
2018-07-02T08:27:01.143Z,0.60
2018-07-02T08:29:30.616Z,0.70
2018-07-02T08:31:59.660Z,0.65
2018-07-02T08:34:28.178Z,0.47
2018-07-02T08:36:56.833Z,0.40
2018-07-02T08:39:25.464Z,0.70
2018-07-02T08:41:54.632Z,0.47
2018-07-02T08:44:23.550Z,0.70
2018-07-02T08:46:52.143Z,0.70
2018-07-02T08:49:20.779Z,0.72
2018-07-02T08:51:50.265Z,0.50
2018-07-02T08:54:18.808Z,0.62
2018-07-02T08:56:47.443Z,0.55
2018-07-02T08:59:16.435Z,0.50
2018-07-02T09:01:45.969Z,0.57
2018-07-02T09:04:15.103Z,0.45
2018-07-02T09:06:43.583Z,0.30
2018-07-02T09:09:12.870Z,0.37
2018-07-02T09:11:41.499Z,0.50
2018-07-02T09:14:10.084Z,0.40
2018-07-02T09:16:38.703Z,0.65
2018-07-02T09:19:08.418Z,0.68
2018-07-02T09:21:38.011Z,0.47
2018-07-02T09:24:06.924Z,0.50
2018-07-02T09:26:35.541Z,0.40
2018-07-02T16:19:09.966Z,0.88
2018-07-02T16:21:40.000Z,0.93
2018-07-02T16:24:09.391Z,0.78
2018-07-02T16:26:38.413Z,0.90
2018-07-02T16:29:07.581Z,0.80
2018-07-02T16:31:37.479Z,0.98
2018-07-02T16:34:06.731Z,1.10
2018-07-02T16:36:35.329Z,0.85
2018-07-02T16:39:05.584Z,1.20
2018-07-02T16:41:34.504Z,0.90
2018-07-02T16:44:03.213Z,0.98
2018-07-02T16:46:31.890Z,0.70
2018-07-02T16:49:00.422Z,0.70
2018-07-02T16:51:28.992Z,0.90
2018-07-02T16:53:57.614Z,0.93
2018-07-02T16:56:26.233Z,0.90
2018-07-02T16:58:55.779Z,1.12
2018-07-02T17:01:25.634Z,1.10
2018-07-02T17:03:54.987Z,0.78
2018-07-02T17:06:24.585Z,1.00
2018-07-02T17:08:53.267Z,1.00
2018-07-02T17:11:21.936Z,1.42
2018-07-02T17:13:50.615Z,1.10
2018-07-02T17:16:19.239Z,1.32
2018-07-02T17:18:48.812Z,1.35
2018-07-02T17:21:17.615Z,1.10
2018-07-02T17:23:46.223Z,1.40
2018-07-02T17:26:14.847Z,1.35
2018-07-02T17:28:43.539Z,1.05
2018-07-02T17:31:12.229Z,1.00
2018-07-02T17:33:40.896Z,1.05
2018-07-02T17:36:09.511Z,0.90
2018-07-02T17:38:38.141Z,1.00
2018-07-02T17:41:06.853Z,1.00
2018-07-02T17:43:35.473Z,0.55
2018-07-02T17:46:04.104Z,0.68
2018-07-02T17:48:33.685Z,0.60
2018-07-02T17:51:02.272Z,0.95
2018-07-02T17:53:30.841Z,0.80
2018-07-02T17:55:59.842Z,0.80
2018-07-02T17:58:28.408Z,0.98
2018-07-02T18:00:56.979Z,1.05
2018-07-02T18:03:25.665Z,0.90
2018-07-02T18:05:54.933Z,0.60
2018-07-02T18:08:23.449Z,0.90
2018-07-02T18:10:51.947Z,1.05
2018-07-02T18:13:20.706Z,1.07
2018-07-02T18:15:49.912Z,1.50
2018-07-02T18:18:18.472Z,1.10
2018-07-02T18:20:47.110Z,1.20
2018-07-02T18:23:15.597Z,1.25
2018-07-02T18:25:44.392Z,1.30
2018-07-02T18:28:12.953Z,1.60
2018-07-02T18:30:41.563Z,1.15
2018-07-02T18:33:10.081Z,1.20
2018-07-02T18:35:38.954Z,1.22
2018-07-02T18:38:07.584Z,1.30
2018-07-02T18:40:36.752Z,1.20
2018-07-02T18:43:05.546Z,1.10
2018-07-02T18:45:34.207Z,1.20
2018-07-02T18:48:02.809Z,1.05
2018-07-02T18:50:31.276Z,1.00
2018-07-02T18:52:59.809Z,1.10
2018-07-02T18:55:28.316Z,1.10
2018-07-02T18:57:57.076Z,0.85
2018-07-02T19:00:26.259Z,1.02
2018-07-02T19:02:54.851Z,0.90
2018-07-02T19:05:23.648Z,0.98
2018-07-02T19:07:52.811Z,1.37
2018-07-02T19:10:22.413Z,1.20
2018-07-02T19:12:52.311Z,1.07
2018-07-02T19:15:21.535Z,1.10
2018-07-02T19:17:50.311Z,1.30
2018-07-02T19:20:26.141Z,1.30
2018-07-02T19:22:59.859Z,1.10
2018-07-02T19:25:34.583Z,1.17
2018-07-02T19:28:06.935Z,1.35
2018-07-02T19:30:42.315Z,1.45
2018-07-02T19:33:11.604Z,1.15
2018-07-02T19:35:40.523Z,1.40
2018-07-02T19:38:09.244Z,1.30
2018-07-02T19:40:38.986Z,1.20
2018-07-02T19:43:07.889Z,2.17
2018-07-02T19:45:36.358Z,1.60
2018-07-02T19:48:05.721Z,1.70
2018-07-02T19:50:34.491Z,1.85
2018-07-02T19:53:04.166Z,2.00
2018-07-02T19:55:32.851Z,2.00
2018-07-02T19:58:01.703Z,1.70
2018-07-02T20:00:30.447Z,1.80
2018-07-02T20:02:59.477Z,1.85
2018-07-02T20:05:28.007Z,2.07
2018-07-02T20:07:56.721Z,2.02
2018-07-02T20:10:25.794Z,2.20
2018-07-02T20:12:54.362Z,2.40
2018-07-02T20:15:23.285Z,2.20
2018-07-02T20:17:52.363Z,2.08
2018-07-02T20:20:22.460Z,2.10
2018-07-02T20:22:51.802Z,1.72
2018-07-02T20:25:21.348Z,2.30
2018-07-02T20:27:51.518Z,2.10
2018-07-02T20:30:20.219Z,2.27
2018-07-02T20:32:49.497Z,2.10
2018-07-02T20:35:18.656Z,2.22
2018-07-02T20:37:48.252Z,2.37
2018-07-02T20:40:16.963Z,2.35
2018-07-02T20:42:46.411Z,2.40
2018-07-02T20:45:15.049Z,2.70
2018-07-02T20:47:43.640Z,2.30
2018-07-02T20:50:12.134Z,2.17
2018-07-02T20:52:40.682Z,2.33
2018-07-02T20:55:10.023Z,2.10
2018-07-02T20:57:38.683Z,2.10
2018-07-02T21:00:07.879Z,2.20
2018-07-02T21:02:36.425Z,2.45
2018-07-02T21:05:05.085Z,2.60
2018-07-02T21:07:33.643Z,2.50
2018-07-02T21:10:03.207Z,2.35
2018-07-02T21:12:31.807Z,2.58
2018-07-02T21:15:00.368Z,2.42
2018-07-02T21:17:28.977Z,2.40
2018-07-02T21:19:58.248Z,2.50
2018-07-02T21:22:26.766Z,2.40
2018-07-02T21:24:55.353Z,2.65
2018-07-02T21:27:24.126Z,2.30
2018-07-02T21:29:52.745Z,2.37
2018-07-02T21:32:21.779Z,2.45
2018-07-02T21:34:50.358Z,2.50
2018-07-02T21:37:19.467Z,2.20
2018-07-02T21:39:47.923Z,2.30
2018-07-02T21:42:18.062Z,2.35
2018-07-02T21:44:46.616Z,2.12
2018-07-02T21:47:15.144Z,2.10
2018-07-02T21:49:43.813Z,2.35
2018-07-02T21:52:12.379Z,2.20
2018-07-02T21:54:41.206Z,2.30
2018-07-02T21:57:09.735Z,2.30
2018-07-02T21:59:38.427Z,2.70
2018-07-02T22:02:07.142Z,1.85
2018-07-02T22:04:36.070Z,1.55
2018-07-02T22:07:04.834Z,1.60
2018-07-02T22:09:33.566Z,1.60
2018-07-02T22:12:02.214Z,1.40
2018-07-02T22:14:30.711Z,1.60
2018-07-02T22:16:59.468Z,1.40
2018-07-02T22:19:28.969Z,1.20
2018-07-02T22:21:57.470Z,1.40
2018-07-02T22:24:26.548Z,1.30
2018-07-02T22:26:56.115Z,1.40
2018-07-02T22:29:24.851Z,1.27
2018-07-02T22:31:53.885Z,1.17
2018-07-02T22:34:22.428Z,1.10
2018-07-02T22:36:50.945Z,1.30
2018-07-02T22:39:19.438Z,1.00
2018-07-02T22:41:48.029Z,1.27
2018-07-02T22:44:17.194Z,1.17
2018-07-02T22:46:46.805Z,1.40
2018-07-02T22:49:15.767Z,1.15
2018-07-02T22:51:44.789Z,1.22
2018-07-02T22:54:14.025Z,1.40
2018-07-02T22:56:43.466Z,1.50
2018-07-02T22:59:13.730Z,1.22
2018-07-02T23:01:42.294Z,1.00
2018-07-02T23:04:10.913Z,1.30
2018-07-02T23:06:39.465Z,1.35
2018-07-02T23:09:09.229Z,1.32
2018-07-02T23:11:38.816Z,1.20
2018-07-02T23:14:07.383Z,1.17
2018-07-02T23:16:36.073Z,1.10
2018-07-02T23:19:04.734Z,1.20
2018-07-02T23:21:34.166Z,1.30
2018-07-02T23:24:02.646Z,1.30
2018-07-02T23:26:31.316Z,1.20
2018-07-02T23:29:00.329Z,1.22
2018-07-02T23:31:28.781Z,1.27
2018-07-02T23:33:57.255Z,1.12
2018-07-02T23:36:25.716Z,1.17
2018-07-02T23:38:54.234Z,1.30
2018-07-02T23:41:23.372Z,1.40
2018-07-02T23:43:51.927Z,1.25
2018-07-02T23:46:20.517Z,1.30
2018-07-02T23:48:49.087Z,1.27
2018-07-02T23:51:17.567Z,1.50
2018-07-02T23:53:46.075Z,1.10
2018-07-02T23:56:14.635Z,1.37
2018-07-02T23:58:45.788Z,1.52
